createdAt,value
2018-06-25T00:00:52.704Z,1018.27
2018-06-25T00:01:52.702Z,1018.26
2018-06-25T00:02:52.696Z,1018.26
2018-06-25T00:03:52.693Z,1018.27
2018-06-25T00:04:52.690Z,1018.25
2018-06-25T00:05:52.689Z,1018.24
2018-06-25T00:06:52.692Z,1018.36
2018-06-25T00:07:52.687Z,1018.32
2018-06-25T00:08:52.687Z,1018.27
2018-06-25T00:09:52.685Z,1018.25
2018-06-25T00:10:52.676Z,1018.25
2018-06-25T00:11:52.673Z,1018.24
2018-06-25T00:12:52.676Z,1018.24
2018-06-25T00:13:52.675Z,1018.27
2018-06-25T00:14:52.671Z,1018.27
2018-06-25T00:15:52.663Z,1018.23
2018-06-25T00:16:52.662Z,1018.27
2018-06-25T00:17:52.658Z,1018.26
2018-06-25T00:18:52.661Z,1018.30
2018-06-25T00:19:52.658Z,1018.28
2018-06-25T00:20:52.655Z,1018.28
2018-06-25T00:21:52.653Z,1018.22
2018-06-25T00:22:52.647Z,1018.23
2018-06-25T00:23:52.643Z,1018.23
2018-06-25T00:24:52.643Z,1018.25
2018-06-25T00:25:52.640Z,1018.33
2018-06-25T00:26:52.642Z,1018.30
2018-06-25T00:27:52.638Z,1018.33
2018-06-25T00:28:52.632Z,1018.31
2018-06-25T00:29:52.630Z,1018.33
2018-06-25T00:30:52.631Z,1018.37
2018-06-25T00:31:52.628Z,1018.37
2018-06-25T00:32:52.625Z,1018.38
2018-06-25T00:33:52.626Z,1018.43
2018-06-25T00:34:52.617Z,1018.43
2018-06-25T00:35:52.612Z,1018.42
2018-06-25T00:36:52.611Z,1018.43
2018-06-25T00:37:52.608Z,1018.40
2018-06-25T00:38:52.610Z,1018.41
2018-06-25T00:39:52.608Z,1018.42
2018-06-25T00:40:52.603Z,1018.40
2018-06-25T00:41:52.602Z,1018.44
2018-06-25T00:42:52.595Z,1018.38
2018-06-25T00:43:52.594Z,1018.36
2018-06-25T00:44:52.593Z,1018.38
2018-06-25T00:45:52.594Z,1018.34
2018-06-25T00:46:52.590Z,1018.33
2018-06-25T00:47:52.583Z,1018.35
2018-06-25T00:48:52.581Z,1018.38
2018-06-25T00:49:52.580Z,1018.37
2018-06-25T00:50:52.594Z,1018.31
2018-06-25T00:51:52.576Z,1018.34
2018-06-25T00:52:52.574Z,1018.32
2018-06-25T00:53:52.571Z,1018.29
2018-06-25T00:54:52.563Z,1018.26
2018-06-25T00:55:52.561Z,1018.22
2018-06-25T00:56:52.557Z,1018.22
2018-06-25T00:57:52.555Z,1018.20
2018-06-25T00:58:52.558Z,1018.25
2018-06-25T00:59:52.556Z,1018.21
2018-06-25T01:00:52.551Z,1018.23
2018-06-25T01:01:52.545Z,1018.24
2018-06-25T01:02:52.545Z,1018.25
2018-06-25T01:03:52.542Z,1018.19
2018-06-25T01:04:52.541Z,1018.19
2018-06-25T01:05:52.555Z,1018.17
2018-06-25T01:06:52.530Z,1018.23
2018-06-25T01:07:52.527Z,1018.28
2018-06-25T01:08:52.530Z,1018.28
2018-06-25T01:09:52.522Z,1018.31
2018-06-25T01:10:52.526Z,1018.35
2018-06-25T01:11:52.522Z,1018.33
2018-06-25T01:12:52.518Z,1018.31
2018-06-25T01:13:52.516Z,1018.35
2018-06-25T01:14:52.509Z,1018.32
2018-06-25T01:15:52.505Z,1018.30
2018-06-25T01:16:52.507Z,1018.32
2018-06-25T01:17:52.505Z,1018.24
2018-06-25T01:18:52.500Z,1018.27
2018-06-25T01:19:52.495Z,1018.26
2018-06-25T01:20:52.492Z,1018.28
2018-06-25T01:21:52.490Z,1018.26
2018-06-25T01:22:52.493Z,1018.24
2018-06-25T01:23:52.488Z,1018.27
2018-06-25T01:24:52.487Z,1018.29
2018-06-25T01:25:52.485Z,1018.25
2018-06-25T01:26:52.478Z,1018.27
2018-06-25T01:27:52.473Z,1018.28
2018-06-25T01:28:52.472Z,1018.30
2018-06-25T01:29:52.469Z,1018.30
2018-06-25T01:30:52.470Z,1018.34
2018-06-25T01:31:52.467Z,1018.31
2018-06-25T01:32:52.460Z,1018.31
2018-06-25T01:33:52.457Z,1018.22
2018-06-25T01:34:52.461Z,1018.29
2018-06-25T01:35:52.456Z,1018.29
2018-06-25T01:36:52.455Z,1018.26
2018-06-25T01:37:52.451Z,1018.25
2018-06-25T01:38:52.444Z,1018.25
2018-06-25T01:39:52.440Z,1018.23
2018-06-25T01:40:52.438Z,1018.23
2018-06-25T01:41:52.435Z,1018.27
2018-06-25T01:42:52.438Z,1018.25
2018-06-25T01:43:52.434Z,1018.27
2018-06-25T01:44:52.432Z,1018.27
2018-06-25T01:45:52.428Z,1018.24
2018-06-25T01:46:52.421Z,1018.21
2018-06-25T01:47:52.418Z,1018.26
2018-06-25T01:48:52.420Z,1018.20
2018-06-25T01:49:52.419Z,1018.26
2018-06-25T01:50:52.410Z,1018.24
2018-06-25T01:51:52.406Z,1018.21
2018-06-25T01:52:52.403Z,1018.22
2018-06-25T01:53:52.402Z,1018.17
2018-06-25T01:54:52.403Z,1018.20
2018-06-25T01:55:52.399Z,1018.17
2018-06-25T01:56:52.398Z,1018.17
2018-06-25T01:57:52.393Z,1018.20
2018-06-25T01:58:52.386Z,1018.15
2018-06-25T01:59:52.384Z,1018.14
2018-06-25T02:00:52.381Z,1018.16
2018-06-25T02:01:52.378Z,1018.18
2018-06-25T02:02:52.381Z,1018.17
2018-06-25T02:03:52.375Z,1018.25
2018-06-25T02:04:52.368Z,1018.25
2018-06-25T02:05:52.366Z,1018.27
2018-06-25T02:06:52.367Z,1018.24
2018-06-25T02:07:52.363Z,1018.29
2018-06-25T02:08:52.362Z,1018.27
2018-06-25T02:09:52.360Z,1018.22
2018-06-25T02:10:52.352Z,1018.28
2018-06-25T02:11:52.348Z,1018.28
2018-06-25T02:12:52.345Z,1018.31
2018-06-25T02:13:52.343Z,1018.34
2018-06-25T02:14:52.344Z,1018.34
2018-06-25T02:15:52.341Z,1018.33
2018-06-25T02:16:52.339Z,1018.32
2018-06-25T02:17:52.335Z,1018.35
2018-06-25T02:18:52.329Z,1018.34
2018-06-25T02:19:52.324Z,1018.34
2018-06-25T02:20:52.326Z,1018.33
2018-06-25T02:21:52.324Z,1018.36
2018-06-25T02:22:52.319Z,1018.31
2018-06-25T02:23:52.314Z,1018.34
2018-06-25T02:24:52.311Z,1018.36
2018-06-25T02:25:52.309Z,1018.31
2018-06-25T02:26:52.312Z,1018.32
2018-06-25T02:27:52.312Z,1018.38
2018-06-25T02:28:52.307Z,1018.36
2018-06-25T02:29:52.303Z,1018.33
2018-06-25T02:30:52.295Z,1018.32
2018-06-25T02:31:52.292Z,1018.31
2018-06-25T02:32:52.289Z,1018.36
2018-06-25T02:33:52.289Z,1018.30
2018-06-25T02:34:52.290Z,1018.33
2018-06-25T02:35:52.291Z,1018.29
2018-06-25T02:36:52.278Z,1018.33
2018-06-25T02:37:52.275Z,1018.34
2018-06-25T02:38:52.277Z,1018.32
2018-06-25T02:39:52.274Z,1018.32
2018-06-25T02:40:52.276Z,1018.32
2018-06-25T02:41:52.269Z,1018.38
2018-06-25T02:42:52.260Z,1018.40
2018-06-25T02:43:52.257Z,1018.32
2018-06-25T02:44:52.254Z,1018.37
2018-06-25T02:45:52.253Z,1018.32
2018-06-25T02:46:52.259Z,1018.35
2018-06-25T02:47:52.249Z,1018.35
2018-06-25T02:48:52.247Z,1018.37
2018-06-25T02:49:52.248Z,1018.33
2018-06-25T02:50:52.238Z,1018.32
2018-06-25T02:51:52.233Z,1018.35
2018-06-25T02:52:52.235Z,1018.32
2018-06-25T02:53:52.234Z,1018.33
2018-06-25T02:54:52.225Z,1018.30
2018-06-25T02:55:52.223Z,1018.34
2018-06-25T02:56:52.219Z,1018.39
2018-06-25T02:57:52.216Z,1018.37
2018-06-25T02:58:52.218Z,1018.37
2018-06-25T02:59:52.217Z,1018.34
2018-06-25T03:00:52.212Z,1018.36
2018-06-25T03:01:52.209Z,1018.35
2018-06-25T03:02:52.203Z,1018.34
2018-06-25T03:03:52.199Z,1018.40
2018-06-25T03:04:52.195Z,1018.42
2018-06-25T03:05:52.192Z,1018.46
2018-06-25T03:06:52.209Z,1018.44
2018-06-25T03:07:52.191Z,1018.40
2018-06-25T03:08:52.183Z,1018.42
2018-06-25T03:09:52.180Z,1018.48
2018-06-25T03:10:52.181Z,1018.43
2018-06-25T03:11:52.178Z,1018.49
2018-06-25T03:12:52.175Z,1018.44
2018-06-25T03:13:52.173Z,1018.46
2018-06-25T03:14:52.165Z,1018.45
2018-06-25T03:15:52.160Z,1018.42
2018-06-25T03:16:52.158Z,1018.39
2018-06-25T03:17:52.155Z,1018.48
2018-06-25T03:18:52.163Z,1018.47
2018-06-25T03:19:52.154Z,1018.47
2018-06-25T03:20:52.150Z,1018.51
2018-06-25T03:21:52.149Z,1018.51
2018-06-25T03:22:52.140Z,1018.53
2018-06-25T03:23:52.137Z,1018.55
2018-06-25T03:24:52.139Z,1018.54
2018-06-25T03:25:52.136Z,1018.55
2018-06-25T03:26:52.128Z,1018.57
2018-06-25T03:27:52.124Z,1018.55
2018-06-25T03:28:52.121Z,1018.54
2018-06-25T03:29:52.119Z,1018.51
2018-06-25T03:30:52.120Z,1018.53
2018-06-25T03:31:52.117Z,1018.59
2018-06-25T03:32:52.114Z,1018.56
2018-06-25T03:33:52.111Z,1018.67
2018-06-25T03:34:52.104Z,1018.60
2018-06-25T03:35:52.100Z,1018.56
2018-06-25T03:36:52.098Z,1018.51
2018-06-25T03:37:52.095Z,1018.52
2018-06-25T03:38:52.099Z,1018.53
2018-06-25T03:39:52.094Z,1018.50
2018-06-25T03:40:52.090Z,1018.55
2018-06-25T03:41:52.083Z,1018.53
2018-06-25T03:42:52.086Z,1018.53
2018-06-25T03:43:52.082Z,1018.55
2018-06-25T03:44:52.081Z,1018.54
2018-06-25T03:45:52.075Z,1018.59
2018-06-25T03:46:52.068Z,1018.59
2018-06-25T03:47:52.064Z,1018.63
2018-06-25T03:48:52.077Z,1018.63
2018-06-25T03:49:52.060Z,1018.71
2018-06-25T03:50:52.061Z,1018.69
2018-06-25T03:51:52.057Z,1018.70
2018-06-25T03:52:52.054Z,1018.71
2018-06-25T03:53:52.050Z,1018.73
2018-06-25T03:54:52.044Z,1018.79
2018-06-25T03:55:52.040Z,1018.79
2018-06-25T03:56:52.042Z,1018.76
2018-06-25T03:57:52.039Z,1018.76
2018-06-25T03:58:52.032Z,1018.70
2018-06-25T03:59:52.028Z,1018.76
2018-06-25T04:00:52.026Z,1018.76
2018-06-25T04:01:52.025Z,1018.81
2018-06-25T04:02:52.025Z,1018.77
2018-06-25T04:03:52.021Z,1018.81
2018-06-25T04:04:52.018Z,1018.76
2018-06-25T04:05:52.019Z,1018.73
2018-06-25T04:06:52.008Z,1018.72
2018-06-25T04:07:52.005Z,1018.71
2018-06-25T04:08:52.001Z,1018.72
2018-06-25T04:09:52.002Z,1018.75
2018-06-25T04:10:52.001Z,1018.78
2018-06-25T04:11:51.996Z,1018.79
2018-06-25T04:12:51.989Z,1018.78
2018-06-25T04:13:51.987Z,1018.82
2018-06-25T04:14:51.988Z,1018.82
2018-06-25T04:15:51.985Z,1018.83
2018-06-25T04:16:51.984Z,1018.87
2018-06-25T04:17:51.983Z,1018.80
2018-06-25T04:18:51.972Z,1018.85
2018-06-25T04:19:51.975Z,1018.79
2018-06-25T04:20:51.967Z,1018.81
2018-06-25T04:21:51.963Z,1018.82
2018-06-25T04:22:51.966Z,1018.85
2018-06-25T04:23:51.963Z,1018.83
2018-06-25T04:24:51.967Z,1018.84
2018-06-25T04:25:51.956Z,1018.86
2018-06-25T04:26:51.949Z,1018.85
2018-06-25T04:27:51.945Z,1018.78
2018-06-25T04:28:51.946Z,1018.82
2018-06-25T04:29:51.944Z,1018.86
2018-06-25T04:30:51.937Z,1018.82
2018-06-25T04:31:51.936Z,1018.83
2018-06-25T04:32:51.931Z,1018.84
2018-06-25T04:33:51.928Z,1018.82
2018-06-25T04:34:51.929Z,1018.86
2018-06-25T04:35:51.929Z,1018.86
2018-06-25T04:36:51.924Z,1018.85
2018-06-25T04:37:51.922Z,1018.87
2018-06-25T04:38:51.914Z,1018.85
2018-06-25T04:39:51.910Z,1018.91
2018-06-25T04:40:51.909Z,1018.91
2018-06-25T04:41:51.905Z,1018.95
2018-06-25T04:42:51.907Z,1018.92
2018-06-25T04:43:51.903Z,1018.97
2018-06-25T04:44:51.899Z,1018.96
2018-06-25T04:45:51.894Z,1018.99
2018-06-25T04:46:51.897Z,1018.97
2018-06-25T04:47:51.893Z,1018.94
2018-06-25T04:48:51.891Z,1018.94
2018-06-25T04:49:51.888Z,1018.94
2018-06-25T04:50:51.882Z,1018.93
2018-06-25T04:51:51.877Z,1018.92
2018-06-25T04:52:51.875Z,1018.92
2018-06-25T04:53:51.873Z,1018.95
2018-06-25T04:54:51.875Z,1018.97
2018-06-25T04:55:51.875Z,1018.96
2018-06-25T04:56:51.870Z,1018.96
2018-06-25T04:57:51.869Z,1018.93
2018-06-25T04:58:51.861Z,1018.94
2018-06-25T04:59:51.857Z,1018.99
2018-06-25T05:00:51.893Z,1018.97
2018-06-25T05:01:51.859Z,1019.02
2018-06-25T05:02:51.851Z,1018.99
2018-06-25T05:03:51.847Z,1019.04
2018-06-25T05:04:51.844Z,1019.01
2018-06-25T05:05:51.843Z,1019.06
2018-06-25T05:06:51.845Z,1019.03
2018-06-25T05:07:51.841Z,1019.07
2018-06-25T05:08:51.871Z,1019.02
2018-06-25T05:09:51.838Z,1019.00
2018-06-25T05:10:51.831Z,1019.03
2018-06-25T05:11:51.827Z,1019.11
2018-06-25T05:12:51.825Z,1019.10
2018-06-25T05:13:51.824Z,1019.07
2018-06-25T05:14:51.826Z,1019.09
2018-06-25T05:15:51.825Z,1019.11
2018-06-25T05:16:51.817Z,1019.13
2018-06-25T05:17:51.814Z,1019.10
2018-06-25T05:18:51.817Z,1019.13
2018-06-25T05:19:51.813Z,1019.14
2018-06-25T05:20:51.814Z,1019.15
2018-06-25T05:21:51.809Z,1019.19
2018-06-25T05:22:51.802Z,1019.18
2018-06-25T05:23:51.800Z,1019.20
2018-06-25T05:24:51.798Z,1019.17
2018-06-25T05:25:51.797Z,1019.20
2018-06-25T05:26:51.798Z,1019.23
2018-06-25T05:27:51.798Z,1019.23
2018-06-25T05:28:51.793Z,1019.21
2018-06-25T05:29:51.792Z,1019.29
2018-06-25T05:30:51.784Z,1019.28
2018-06-25T05:31:51.783Z,1019.32
2018-06-25T05:32:51.784Z,1019.30
2018-06-25T05:33:51.782Z,1019.32
2018-06-25T05:34:51.775Z,1019.33
2018-06-25T05:35:51.772Z,1019.31
2018-06-25T05:36:51.770Z,1019.28
2018-06-25T05:37:51.769Z,1019.32
2018-06-25T05:38:51.770Z,1019.30
2018-06-25T05:39:51.769Z,1019.32
2018-06-25T05:40:51.767Z,1019.34
2018-06-25T05:41:51.763Z,1019.30
2018-06-25T05:42:51.756Z,1019.31
2018-06-25T05:43:51.753Z,1019.24
2018-06-25T05:44:51.753Z,1019.25
2018-06-25T05:45:51.750Z,1019.30
2018-06-25T05:46:51.752Z,1019.28
2018-06-25T05:47:51.749Z,1019.25
2018-06-25T05:48:51.790Z,1019.29
2018-06-25T05:49:51.745Z,1019.27
2018-06-25T05:50:51.743Z,1019.22
2018-06-25T05:51:51.741Z,1019.28
2018-06-25T05:52:51.737Z,1019.29
2018-06-25T05:53:51.737Z,1019.30
2018-06-25T05:54:51.729Z,1019.32
2018-06-25T05:55:51.729Z,1019.35
2018-06-25T05:56:51.728Z,1019.30
2018-06-25T05:57:51.727Z,1019.33
2018-06-25T05:58:51.729Z,1019.37
2018-06-25T05:59:51.717Z,1019.36
2018-06-25T06:00:51.715Z,1019.38
2018-06-25T06:01:51.713Z,1019.38
2018-06-25T06:02:51.735Z,1019.41
2018-06-25T06:03:51.711Z,1019.43
2018-06-25T06:04:51.705Z,1019.44
2018-06-25T06:05:51.704Z,1019.46
2018-06-25T06:06:51.706Z,1019.45
2018-06-25T06:07:51.703Z,1019.48
2018-06-25T06:08:51.702Z,1019.48
2018-06-25T06:09:51.701Z,1019.48
2018-06-25T06:10:51.704Z,1019.49
2018-06-25T06:11:51.690Z,1019.49
2018-06-25T06:12:51.689Z,1019.51
2018-06-25T06:13:51.689Z,1019.48
2018-06-25T06:14:51.691Z,1019.45
2018-06-25T06:15:51.687Z,1019.48
2018-06-25T06:16:51.685Z,1019.52
2018-06-25T06:17:51.681Z,1019.55
2018-06-25T06:18:51.676Z,1019.54
2018-06-25T06:19:51.671Z,1019.61
2018-06-25T06:20:51.674Z,1019.57
2018-06-25T06:21:51.692Z,1019.59
2018-06-25T06:22:51.665Z,1019.63
2018-06-25T06:23:51.662Z,1019.67
2018-06-25T06:24:51.661Z,1019.62
2018-06-25T06:25:51.659Z,1019.63
2018-06-25T06:26:51.662Z,1019.63
2018-06-25T06:27:51.659Z,1019.69
2018-06-25T06:28:51.658Z,1019.71
2018-06-25T06:29:51.657Z,1019.69
2018-06-25T06:30:51.648Z,1019.71
2018-06-25T06:31:51.645Z,1019.69
2018-06-25T06:32:51.642Z,1019.71
2018-06-25T06:33:51.642Z,1019.73
2018-06-25T06:34:51.646Z,1019.75
2018-06-25T06:35:51.641Z,1019.73
2018-06-25T06:36:51.636Z,1019.76
2018-06-25T06:37:51.634Z,1019.72
2018-06-25T06:38:51.637Z,1019.75
2018-06-25T06:39:51.694Z,1019.80
2018-06-25T06:40:51.633Z,1019.80
2018-06-25T06:41:51.633Z,1019.81
2018-06-25T06:42:51.627Z,1019.83
2018-06-25T06:43:51.623Z,1019.85
2018-06-25T06:44:51.622Z,1019.87
2018-06-25T06:45:51.620Z,1019.90
2018-06-25T06:46:51.625Z,1019.88
2018-06-25T06:47:51.624Z,1019.90
2018-06-25T06:48:51.619Z,1019.91
2018-06-25T06:49:51.618Z,1019.95
2018-06-25T06:50:51.615Z,1019.94
2018-06-25T06:51:51.610Z,1019.94
2018-06-25T06:52:51.613Z,1019.95
2018-06-25T06:53:51.613Z,1019.98
2018-06-25T06:54:51.606Z,1019.99
2018-06-25T06:55:51.604Z,1019.97
2018-06-25T06:56:51.602Z,1020.02
2018-06-25T06:57:51.672Z,1020.02
2018-06-25T06:58:51.606Z,1019.98
2018-06-25T06:59:51.607Z,1020.04
2018-06-25T07:00:51.600Z,1020.00
2018-06-25T07:01:51.603Z,1019.99
2018-06-25T07:02:51.594Z,1019.97
2018-06-25T07:03:51.591Z,1020.02
2018-06-25T07:04:51.593Z,1020.02
2018-06-25T07:05:51.590Z,1020.03
2018-06-25T07:06:51.593Z,1020.03
2018-06-25T07:07:51.592Z,1019.95
2018-06-25T07:08:51.585Z,1020.04
2018-06-25T07:09:51.585Z,1020.03
2018-06-25T07:10:51.590Z,1020.06
2018-06-25T07:11:51.588Z,1020.08
2018-06-25T07:12:51.587Z,1020.07
2018-06-25T07:13:51.584Z,1020.05
2018-06-25T07:14:51.580Z,1020.05
2018-06-25T07:15:51.576Z,1020.08
2018-06-25T07:16:51.576Z,1020.13
2018-06-25T07:17:51.578Z,1020.08
2018-06-25T07:18:51.578Z,1020.04
2018-06-25T07:19:51.577Z,1020.02
2018-06-25T07:20:51.611Z,1020.06
2018-06-25T07:21:51.576Z,1020.05
2018-06-25T07:22:51.569Z,1020.07
2018-06-25T07:23:51.567Z,1020.06
2018-06-25T07:24:51.570Z,1020.03
2018-06-25T07:25:51.569Z,1020.06
2018-06-25T07:26:51.563Z,1020.10
2018-06-25T07:27:51.560Z,1020.16
2018-06-25T07:28:51.617Z,1020.14
2018-06-25T07:29:51.588Z,1020.14
2018-06-25T07:30:51.562Z,1020.15
2018-06-25T07:31:51.560Z,1020.06
2018-06-25T07:32:51.560Z,1020.10
2018-06-25T07:33:51.558Z,1020.12
2018-06-25T07:34:51.553Z,1020.08
2018-06-25T07:35:51.551Z,1020.08
2018-06-25T07:36:51.551Z,1020.10
2018-06-25T07:37:51.550Z,1020.10
2018-06-25T07:38:51.553Z,1020.12
2018-06-25T07:39:51.553Z,1020.13
2018-06-25T07:40:51.547Z,1020.15
2018-06-25T07:41:51.545Z,1020.10
2018-06-25T07:42:51.551Z,1020.13
2018-06-25T07:43:51.547Z,1020.14
2018-06-25T07:44:51.550Z,1020.10
2018-06-25T07:45:51.545Z,1020.08
2018-06-25T07:46:51.542Z,1020.10
2018-06-25T07:47:51.541Z,1020.05
2018-06-25T07:48:51.538Z,1020.10
2018-06-25T07:49:51.538Z,1020.17
2018-06-25T07:50:51.544Z,1020.19
2018-06-25T07:51:51.539Z,1020.21
2018-06-25T07:52:51.540Z,1020.22
2018-06-25T07:53:51.538Z,1020.29
2018-06-25T07:54:51.534Z,1020.26
2018-06-25T07:55:51.531Z,1020.24
2018-06-25T07:56:51.536Z,1020.26
2018-06-25T07:57:51.536Z,1020.22
2018-06-25T07:58:51.529Z,1020.20
2018-06-25T07:59:51.529Z,1020.20
2018-06-25T08:00:51.527Z,1020.21
2018-06-25T08:01:51.527Z,1020.23
2018-06-25T08:02:51.532Z,1020.25
2018-06-25T08:03:51.529Z,1020.25
2018-06-25T08:04:51.529Z,1020.30
2018-06-25T08:05:51.530Z,1020.31
2018-06-25T08:06:51.524Z,1020.40
2018-06-25T08:07:51.523Z,1020.33
2018-06-25T08:08:51.522Z,1020.32
2018-06-25T08:09:51.583Z,1020.46
2018-06-25T08:10:51.527Z,1020.42
2018-06-25T08:11:51.525Z,1020.37
2018-06-25T08:12:51.523Z,1020.45
2018-06-25T08:13:51.522Z,1020.42
2018-06-25T08:14:51.527Z,1020.38
2018-06-25T08:15:51.525Z,1020.39
2018-06-25T08:16:51.527Z,1020.38
2018-06-25T08:17:51.527Z,1020.39
2018-06-25T08:18:51.525Z,1020.39
2018-06-25T08:19:51.522Z,1020.34
2018-06-25T08:20:51.523Z,1020.34
2018-06-25T08:21:51.523Z,1020.37
2018-06-25T08:22:51.529Z,1020.38
2018-06-25T08:23:51.529Z,1020.37
2018-06-25T08:24:51.528Z,1020.36
2018-06-25T08:25:51.529Z,1020.33
2018-06-25T08:26:51.525Z,1020.38
2018-06-25T08:27:51.523Z,1020.39
2018-06-25T08:28:51.529Z,1020.43
2018-06-25T08:29:51.588Z,1020.47
2018-06-25T08:30:51.527Z,1020.46
2018-06-25T08:31:51.525Z,1020.49
2018-06-25T08:32:51.525Z,1020.66
2018-06-25T08:33:51.691Z,1020.62
2018-06-25T08:34:51.530Z,1020.73
2018-06-25T08:35:51.530Z,1020.59
2018-06-25T08:36:51.535Z,1020.54
2018-06-25T08:37:51.538Z,1020.51
2018-06-25T08:38:51.529Z,1020.44
2018-06-25T08:39:51.527Z,1020.49
2018-06-25T08:40:51.529Z,1020.55
2018-06-25T08:41:51.529Z,1020.57
2018-06-25T08:42:51.538Z,1020.86
2018-06-25T08:43:51.532Z,1020.91
2018-06-25T08:44:51.529Z,1020.72
2018-06-25T08:45:51.586Z,1020.59
2018-06-25T08:46:51.535Z,1020.76
2018-06-25T08:47:51.537Z,1020.66
2018-06-25T08:48:51.538Z,1020.64
2018-06-25T08:49:51.541Z,1020.56
2018-06-25T08:50:51.537Z,1020.49
2018-06-25T08:51:51.578Z,1020.52
2018-06-25T08:52:51.539Z,1020.54
2018-06-25T08:53:51.540Z,1020.51
2018-06-25T08:54:51.546Z,1020.50
2018-06-25T08:55:51.547Z,1020.46
2018-06-25T08:56:51.552Z,1020.54
2018-06-25T08:57:51.550Z,1020.54
2018-06-25T08:58:51.547Z,1020.58
2018-06-25T08:59:51.547Z,1020.57
2018-06-25T09:00:51.553Z,1020.64
2018-06-25T09:01:51.555Z,1020.63
2018-06-25T09:02:51.552Z,1020.63
2018-06-25T09:03:51.553Z,1020.61
2018-06-25T09:04:51.554Z,1020.62
2018-06-25T09:05:51.555Z,1020.64
2018-06-25T09:06:51.566Z,1020.55
2018-06-25T09:07:51.562Z,1020.54
2018-06-25T09:08:51.561Z,1020.58
2018-06-25T09:09:51.615Z,1020.75
2018-06-25T09:10:51.559Z,1020.95
2018-06-25T09:11:51.559Z,1021.17
2018-06-25T09:12:51.560Z,1020.96
2018-06-25T09:13:51.561Z,1021.05
2018-06-25T09:14:51.567Z,1021.20
2018-06-25T09:15:51.567Z,1021.14
2018-06-25T09:16:51.564Z,1021.01
2018-06-25T09:17:51.566Z,1021.04
2018-06-25T09:18:51.571Z,1021.88
2018-06-25T09:19:51.573Z,1021.08
2018-06-25T09:20:51.574Z,1021.48
2018-06-25T09:21:51.577Z,1021.04
2018-06-25T09:22:51.574Z,1020.81
2018-06-25T09:23:51.576Z,1020.81
2018-06-25T09:24:51.579Z,1020.95
2018-06-25T09:25:51.581Z,1020.99
2018-06-25T09:26:51.589Z,1020.74
2018-06-25T09:27:51.600Z,1021.75
2018-06-25T09:28:51.595Z,1021.03
2018-06-25T09:29:51.599Z,1020.85
2018-06-25T09:30:51.598Z,1020.78
2018-06-25T09:31:51.600Z,1020.76
2018-06-25T09:32:51.609Z,1020.70
2018-06-25T09:33:51.613Z,1020.70
2018-06-25T09:34:51.613Z,1020.75
2018-06-25T09:35:51.614Z,1020.78
2018-06-25T09:36:51.618Z,1020.76
2018-06-25T09:37:51.621Z,1020.81
2018-06-25T09:38:51.630Z,1020.77
2018-06-25T09:39:51.633Z,1020.73
2018-06-25T09:40:51.643Z,1020.87
2018-06-25T09:41:51.640Z,1021.09
2018-06-25T09:42:51.640Z,1020.93
2018-06-25T09:43:51.642Z,1020.85
2018-06-25T09:44:51.647Z,1020.80
2018-06-25T09:45:51.664Z,1020.95
2018-06-25T09:46:51.713Z,1020.92
2018-06-25T09:47:51.661Z,1021.01
2018-06-25T09:48:51.660Z,1020.92
2018-06-25T09:49:51.663Z,1020.86
2018-06-25T09:50:51.675Z,1020.85
2018-06-25T09:51:51.675Z,1020.86
2018-06-25T09:52:51.677Z,1020.83
2018-06-25T09:53:51.681Z,1020.82
2018-06-25T09:54:51.791Z,1020.82
2018-06-25T09:55:51.684Z,1020.73
2018-06-25T09:56:51.687Z,1020.78
2018-06-25T09:57:51.691Z,1020.71
2018-06-25T09:58:51.700Z,1020.79
2018-06-25T09:59:51.703Z,1020.77
2018-06-25T10:00:51.705Z,1020.75
2018-06-25T10:01:51.709Z,1020.79
2018-06-25T10:02:51.708Z,1020.78
2018-06-25T10:03:51.711Z,1020.77
2018-06-25T10:04:51.719Z,1020.73
2018-06-25T10:05:51.723Z,1020.78
2018-06-25T10:06:51.721Z,1020.77
2018-06-25T10:07:51.723Z,1020.85
2018-06-25T10:08:51.726Z,1020.86
2018-06-25T10:09:51.759Z,1020.89
2018-06-25T10:10:51.737Z,1020.85
2018-06-25T10:11:51.739Z,1020.82
2018-06-25T10:12:51.742Z,1020.82
2018-06-25T10:13:51.745Z,1020.80
2018-06-25T10:14:51.744Z,1020.78
2018-06-25T10:15:51.745Z,1020.72
2018-06-25T10:16:51.750Z,1020.70
2018-06-25T10:17:51.752Z,1020.70
2018-06-25T10:18:51.760Z,1020.66
2018-06-25T10:19:51.763Z,1020.65
2018-06-25T10:20:51.761Z,1020.70
2018-06-25T10:21:51.764Z,1020.69
2018-06-25T10:22:51.773Z,1020.66
2018-06-25T10:23:51.775Z,1020.71
2018-06-25T10:24:51.777Z,1020.70
2018-06-25T10:25:51.779Z,1020.72
2018-06-25T10:26:51.777Z,1020.75
2018-06-25T10:27:51.779Z,1020.79
2018-06-25T10:28:51.782Z,1020.79
2018-06-25T10:29:51.786Z,1020.75
2018-06-25T10:30:51.791Z,1020.82
2018-06-25T10:31:51.792Z,1020.95
2018-06-25T10:32:51.797Z,1020.98
2018-06-25T10:33:51.799Z,1021.00
2018-06-25T10:34:51.853Z,1021.00
2018-06-25T10:35:51.799Z,1021.00
2018-06-25T10:36:51.806Z,1020.91
2018-06-25T10:37:51.811Z,1020.85
2018-06-25T10:38:51.806Z,1020.86
2018-06-25T10:39:51.808Z,1020.83
2018-06-25T10:40:51.812Z,1020.85
2018-06-25T10:41:51.812Z,1020.82
2018-06-25T10:42:51.823Z,1020.82
2018-06-25T10:43:51.826Z,1020.77
2018-06-25T10:44:51.828Z,1020.84
2018-06-25T10:45:51.829Z,1020.78
2018-06-25T10:46:51.828Z,1020.83
2018-06-25T10:47:51.830Z,1020.80
2018-06-25T10:48:51.834Z,1020.86
2018-06-25T10:49:51.837Z,1020.84
2018-06-25T10:50:51.846Z,1020.88
2018-06-25T10:51:51.847Z,1020.88
2018-06-25T10:52:51.845Z,1020.84
2018-06-25T10:53:51.849Z,1020.87
2018-06-25T10:54:51.856Z,1020.89
2018-06-25T10:55:51.858Z,1020.88
2018-06-25T10:56:51.861Z,1020.89
2018-06-25T10:57:51.864Z,1020.85
2018-06-25T10:58:51.863Z,1020.86
2018-06-25T10:59:51.990Z,1020.84
2018-06-25T11:00:51.868Z,1020.85
2018-06-25T11:01:51.873Z,1020.84
2018-06-25T11:02:51.878Z,1020.79
2018-06-25T11:03:51.881Z,1020.80
2018-06-25T11:04:51.884Z,1020.76
2018-06-25T11:05:51.894Z,1020.73
2018-06-25T11:06:51.885Z,1020.75
2018-06-25T11:07:51.891Z,1020.79
2018-06-25T11:08:51.896Z,1020.75
2018-06-25T11:09:51.898Z,1020.75
2018-06-25T11:10:51.906Z,1020.70
2018-06-25T11:11:51.898Z,1020.70
2018-06-25T11:12:52.010Z,1020.69
2018-06-25T11:13:51.903Z,1020.76
2018-06-25T11:14:51.912Z,1020.67
2018-06-25T11:15:51.911Z,1020.68
2018-06-25T11:16:51.917Z,1020.68
2018-06-25T11:17:51.916Z,1020.72
2018-06-25T11:18:51.919Z,1020.66
2018-06-25T11:19:51.915Z,1020.72
2018-06-25T11:20:51.917Z,1020.72
2018-06-25T11:21:51.920Z,1020.75
2018-06-25T11:22:51.927Z,1020.74
2018-06-25T11:23:51.927Z,1020.70
2018-06-25T11:24:51.925Z,1020.69
2018-06-25T11:25:51.928Z,1020.69
2018-06-25T11:26:52.038Z,1020.63
2018-06-25T11:27:51.972Z,1020.63
2018-06-25T11:28:51.937Z,1020.67
2018-06-25T11:29:51.951Z,1020.65
2018-06-25T11:30:51.937Z,1020.67
2018-06-25T11:31:51.941Z,1020.66
2018-06-25T11:32:51.940Z,1020.66
2018-06-25T11:33:51.943Z,1020.65
2018-06-25T11:34:51.950Z,1020.68
2018-06-25T11:35:51.949Z,1020.66
2018-06-25T11:36:51.952Z,1020.65
2018-06-25T11:37:51.954Z,1020.69
2018-06-25T11:38:51.951Z,1020.70
2018-06-25T11:39:51.952Z,1020.65
2018-06-25T11:40:51.959Z,1020.66
2018-06-25T11:41:52.000Z,1020.68
2018-06-25T11:42:51.959Z,1020.69
2018-06-25T11:43:51.965Z,1020.66
2018-06-25T11:44:51.963Z,1020.67
2018-06-25T11:45:51.964Z,1020.68
2018-06-25T11:46:51.972Z,1020.68
2018-06-25T11:47:51.978Z,1020.72
2018-06-25T11:48:51.974Z,1020.74
2018-06-25T11:49:51.976Z,1020.76
2018-06-25T11:50:51.975Z,1020.77
2018-06-25T11:51:51.975Z,1020.75
2018-06-25T11:52:51.977Z,1020.74
2018-06-25T11:53:51.979Z,1020.79
2018-06-25T11:54:51.985Z,1020.78
2018-06-25T11:55:51.986Z,1020.80
2018-06-25T11:56:51.984Z,1020.79
2018-06-25T11:57:51.986Z,1020.88
2018-06-25T11:58:51.993Z,1020.85
2018-06-25T11:59:51.994Z,1020.83
2018-06-25T12:00:51.996Z,1020.86
2018-06-25T12:01:52.009Z,1020.85
2018-06-25T12:02:52.074Z,1020.86
2018-06-25T12:03:51.998Z,1020.83
2018-06-25T12:04:52.002Z,1020.82
2018-06-25T12:05:52.002Z,1020.87